In Rescue
 
Open Full Screen Window  High Contrast Mode
Wind Gusting 00 knots
06
March 19, 2019 6:09 PM CDT
Weather Information
Wind Direction
  250 °
Wind Speed
  06 kt (7 mph)
Wind Gust
  00 kt (0 mph)
Altimeter
30.11 in
Visibility
10 SM
Temperature
02° C
36° F
Dewpoint
-01° C
30° F
Humidity
81%
1hr Rain Fall
00.00 in.
24hr Rain Fall
00.00 in.
Sky Condition
Clear
VFR

METAR KDTL 192309Z AUTO 25006KT 10SM CLR 02/M01 A3011 RMK AO2

FAA Disclaimer: The data displayed is for advisory purposes only and is not to be used for flight planning or operations.